Time,TemperatureF,DewpointF,PressureIn,WindDirection,WindDirectionDegrees,WindSpeedMPH,WindSpeedGustMPH,Humidity,HourlyPrecipIn,Conditions,Clouds,dailyrainin,SoftwareType,DateUTC
2013-01-01 00:03:00,36.0,32.0,29.88,WSW,242,3.0,20.0,84,0.00,,,0.10,,2013-01-01 05:03:00,
2013-01-01 00:12:00,36.0,32.0,29.88,WSW,242,3.0,20.0,84,0.00,,,0.10,,2013-01-01 05:12:00,
2013-01-01 00:22:00,37.0,34.0,29.86,WNW,289,2.0,20.0,87,0.00,,,0.10,,2013-01-01 05:22:00,
2013-01-01 00:33:00,37.0,34.0,29.86,WNW,289,2.0,20.0,87,0.00,,,0.10,,2013-01-01 05:33:00,
2013-01-01 00:42:00,37.0,34.0,29.86,WNW,289,2.0,20.0,87,0.00,,,0.10,,2013-01-01 05:42:00,
2013-01-01 00:52:00,37.0,33.0,29.85,WNW,286,6.0,16.0,86,0.00,,,0.10,,2013-01-01 05:52:00,
2013-01-01 01:02:00,37.0,33.0,29.85,WNW,286,6.0,16.0,86,0.00,,,0.10,,2013-01-01 06:02:00,
2013-01-01 01:12:00,37.0,33.0,29.85,WNW,286,6.0,16.0,86,0.00,,,0.10,,2013-01-01 06:12:00,
2013-01-01 01:22:00,37.0,33.0,29.84,WSW,252,0.0,16.0,85,0.00,,,0.10,,2013-01-01 06:22:00,
2013-01-01 01:32:00,37.0,33.0,29.84,WSW,252,0.0,16.0,85,0.00,,,0.10,,2013-01-01 06:32:00,
2013-01-01 01:42:00,37.0,33.0,29.84,WSW,252,0.0,16.0,85,0.00,,,0.10,,2013-01-01 06:42:00,
2013-01-01 01:52:00,37.0,33.0,29.86,West,281,7.0,19.0,84,0.00,,,0.10,,2013-01-01 06:52:00,
2013-01-01 02:12:00,37.0,33.0,29.86,West,281,7.0,19.0,84,0.00,,,0.10,,2013-01-01 07:12:00,
2013-01-01 02:22:00,37.0,33.0,29.86,West,281,7.0,19.0,84,0.00,,,0.10,,2013-01-01 07:22:00,
2013-01-01 02:32:00,37.0,33.0,29.86,West,281,7.0,19.0,84,0.00,,,0.10,,2013-01-01 07:32:00,
2013-01-01 02:42:00,37.0,33.0,29.86,West,281,7.0,19.0,84,0.00,,,0.10,,2013-01-01 07:42:00,
2013-01-01 03:22:00,37.0,33.0,29.84,West,276,6.0,19.0,85,0.00,,,0.10,,2013-01-01 08:22:00,
2013-01-01 03:32:00,37.0,33.0,29.84,West,276,6.0,19.0,85,0.00,,,0.10,,2013-01-01 08:32:00,
2013-01-01 03:42:00,36.0,32.0,29.83,West,277,4.0,19.0,86,0.00,,,0.10,,2013-01-01 08:42:00,
2013-01-01 03:53:00,36.0,32.0,29.83,West,277,4.0,19.0,86,0.00,,,0.10,,2013-01-01 08:53:00,
2013-01-01 04:02:00,36.0,32.0,29.83,West,277,4.0,19.0,86,0.00,,,0.10,,2013-01-01 09:02:00,
2013-01-01 04:12:00,36.0,32.0,29.83,West,277,4.0,19.0,86,0.00,,,0.10,,2013-01-01 09:12:00,
2013-01-01 04:22:00,35.0,32.0,29.83,SW,235,1.0,19.0,89,0.00,,,0.10,,2013-01-01 09:22:00,
2013-01-01 04:32:00,35.0,32.0,29.83,SW,235,1.0,19.0,89,0.00,,,0.10,,2013-01-01 09:32:00,
2013-01-01 04:42:00,35.0,32.0,29.83,SW,235,1.0,19.0,89,0.00,,,0.10,,2013-01-01 09:42:00,
2013-01-01 04:52:00,35.0,32.0,29.84,WSW,258,2.0,19.0,90,0.00,,,0.10,,2013-01-01 09:52:00,
2013-01-01 05:02:00,35.0,32.0,29.84,WSW,258,2.0,19.0,90,0.00,,,0.10,,2013-01-01 10:02:00,
2013-01-01 05:12:00,35.0,33.0,29.84,WNW,296,2.0,19.0,92,0.00,,,0.10,,2013-01-01 10:12:00,
2013-01-01 05:22:00,35.0,33.0,29.84,WNW,296,2.0,19.0,92,0.00,,,0.10,,2013-01-01 10:22:00,
2013-01-01 05:33:00,35.0,33.0,29.84,WNW,296,2.0,19.0,92,0.00,,,0.10,,2013-01-01 10:33:00,
2013-01-01 05:42:00,35.0,33.0,29.84,WNW,296,2.0,19.0,92,0.00,,,0.10,,2013-01-01 10:42:00,
2013-01-01 05:52:00,34.0,32.0,29.84,SW,230,0.0,19.0,92,0.00,,,0.10,,2013-01-01 10:52:00,
2013-01-01 06:02:00,34.0,32.0,29.84,SW,230,0.0,19.0,92,0.00,,,0.10,,2013-01-01 11:02:00,
2013-01-01 06:12:00,34.0,32.0,29.84,SW,230,0.0,19.0,92,0.00,,,0.10,,2013-01-01 11:12:00,
2013-01-01 06:23:00,34.0,32.0,29.85,West,275,4.0,19.0,93,0.00,,,0.10,,2013-01-01 11:23:00,
2013-01-01 06:33:00,34.0,32.0,29.85,West,275,4.0,19.0,93,0.00,,,0.10,,2013-01-01 11:33:00,
2013-01-01 06:43:00,34.0,32.0,29.85,West,275,4.0,19.0,93,0.00,,,0.10,,2013-01-01 11:43:00,
2013-01-01 06:53:00,34.0,32.0,29.84,WNW,293,0.0,19.0,94,0.00,,,0.10,,2013-01-01 11:53:00,
2013-01-01 07:03:00,34.0,32.0,29.84,WNW,293,0.0,19.0,94,0.00,,,0.10,,2013-01-01 12:03:00,
2013-01-01 07:12:00,34.0,32.0,29.84,WNW,293,0.0,19.0,94,0.00,,,0.10,,2013-01-01 12:12:00,
2013-01-01 07:22:00,34.0,32.0,29.85,West,264,3.0,19.0,94,0.00,,,0.10,,2013-01-01 12:22:00,
2013-01-01 07:33:00,34.0,32.0,29.85,West,264,3.0,19.0,94,0.00,,,0.10,,2013-01-01 12:33:00,
2013-01-01 07:43:00,34.0,32.0,29.85,West,264,3.0,19.0,94,0.00,,,0.10,,2013-01-01 12:43:00,
2013-01-01 07:52:00,35.0,33.0,29.85,WSW,256,0.0,19.0,94,0.00,,,0.10,,2013-01-01 12:52:00,
2013-01-01 08:03:00,35.0,33.0,29.85,WSW,256,0.0,19.0,94,0.00,,,0.10,,2013-01-01 13:03:00,
2013-01-01 08:12:00,35.0,33.0,29.85,WSW,256,0.0,19.0,94,0.00,,,0.10,,2013-01-01 13:12:00,
2013-01-01 08:22:00,36.0,34.0,29.85,WSW,250,3.0,19.0,93,0.00,,,0.10,,2013-01-01 13:22:00,
2013-01-01 08:33:00,36.0,34.0,29.85,WSW,250,3.0,19.0,93,0.00,,,0.10,,2013-01-01 13:33:00,
2013-01-01 08:43:00,36.0,34.0,29.85,WSW,250,3.0,19.0,93,0.00,,,0.10,,2013-01-01 13:43:00,
2013-01-01 08:52:00,36.0,34.0,29.86,West,271,2.0,19.0,93,0.00,,,0.10,,2013-01-01 13:52:00,
2013-01-01 09:03:00,36.0,34.0,29.86,West,271,2.0,19.0,93,0.00,,,0.10,,2013-01-01 14:03:00,
2013-01-01 09:12:00,36.0,34.0,29.86,West,271,2.0,19.0,93,0.00,,,0.10,,2013-01-01 14:12:00,
2013-01-01 09:22:00,37.0,35.0,29.86,WNW,292,1.0,19.0,91,0.00,,,0.10,,2013-01-01 14:22:00,
2013-01-01 09:32:00,37.0,35.0,29.86,WNW,292,1.0,19.0,91,0.00,,,0.10,,2013-01-01 14:32:00,
2013-01-01 09:42:00,37.0,35.0,29.86,WNW,292,1.0,19.0,91,0.00,,,0.10,,2013-01-01 14:42:00,
2013-01-01 09:53:00,37.0,34.0,29.86,WNW,299,2.0,19.0,90,0.00,,,0.10,,2013-01-01 14:53:00,
2013-01-01 10:03:00,37.0,34.0,29.86,WNW,299,2.0,19.0,90,0.00,,,0.10,,2013-01-01 15:03:00,
2013-01-01 10:12:00,38.0,35.0,29.87,NW,317,6.0,19.0,89,0.00,,,0.10,,2013-01-01 15:12:00,
2013-01-01 10:22:00,38.0,35.0,29.87,NW,317,6.0,19.0,89,0.00,,,0.10,,2013-01-01 15:22:00,
2013-01-01 10:33:00,38.0,35.0,29.87,NW,317,6.0,19.0,89,0.00,,,0.10,,2013-01-01 15:33:00,
2013-01-01 10:43:00,38.0,35.0,29.87,NW,317,6.0,19.0,89,0.00,,,0.10,,2013-01-01 15:43:00,
2013-01-01 10:53:00,38.0,34.0,29.87,WNW,292,5.0,19.0,84,0.01,,,0.11,,2013-01-01 15:53:00,
2013-01-01 11:02:00,38.0,34.0,29.87,WNW,292,5.0,19.0,84,0.01,,,0.11,,2013-01-01 16:02:00,
2013-01-01 11:12:00,38.0,34.0,29.87,WNW,292,5.0,19.0,84,0.01,,,0.11,,2013-01-01 16:12:00,
2013-01-01 11:52:00,38.0,33.0,29.85,WNW,294,4.0,20.0,82,0.03,,,0.15,,2013-01-01 16:52:00,
2013-01-01 11:53:00,38.0,33.0,29.86,WNW,302,3.0,20.0,82,0.04,,,0.15,,2013-01-01 16:53:00,
2013-01-01 12:02:00,38.0,33.0,29.86,WNW,302,3.0,20.0,82,0.04,,,0.15,,2013-01-01 17:02:00,
2013-01-01 12:12:00,38.0,33.0,29.86,WNW,302,3.0,20.0,82,0.04,,,0.15,,2013-01-01 17:12:00,
2013-01-01 12:22:00,38.0,33.0,29.85,WNW,294,4.0,20.0,82,0.03,,,0.15,,2013-01-01 17:22:00,
2013-01-01 12:33:00,38.0,33.0,29.85,WNW,294,4.0,20.0,82,0.03,,,0.15,,2013-01-01 17:33:00,
2013-01-01 12:43:00,38.0,33.0,29.85,WNW,294,4.0,20.0,82,0.03,,,0.15,,2013-01-01 17:43:00,
2013-01-01 12:52:00,37.0,32.0,29.83,NW,317,6.0,20.0,83,0.02,,,0.14,,2013-01-01 17:52:00,
2013-01-01 13:23:00,37.0,32.0,29.83,NW,317,6.0,20.0,83,0.02,,,0.14,,2013-01-01 18:23:00,
2013-01-01 13:33:00,37.0,32.0,29.83,NW,317,6.0,20.0,83,0.02,,,0.14,,2013-01-01 18:33:00,
2013-01-01 13:43:00,37.0,32.0,29.83,NW,317,6.0,20.0,83,0.02,,,0.14,,2013-01-01 18:43:00,
2013-01-01 14:02:00,37.0,32.0,29.83,NW,306,6.0,20.0,82,0.02,,,0.13,,2013-01-01 19:02:00,
2013-01-01 14:12:00,37.0,32.0,29.83,NW,306,6.0,20.0,82,0.02,,,0.13,,2013-01-01 19:12:00,
2013-01-01 14:22:00,36.0,30.0,29.83,WNW,291,2.0,20.0,80,0.01,,,0.11,,2013-01-01 19:22:00,
2013-01-01 14:33:00,36.0,30.0,29.83,WNW,291,2.0,20.0,80,0.01,,,0.11,,2013-01-01 19:33:00,
2013-01-01 14:43:00,36.0,30.0,29.83,WNW,291,2.0,20.0,80,0.01,,,0.11,,2013-01-01 19:43:00,
2013-01-01 14:52:00,36.0,30.0,29.83,NW,306,8.0,21.0,79,0.01,,,0.12,,2013-01-01 19:52:00,
2013-01-01 15:02:00,36.0,30.0,29.83,NW,306,8.0,21.0,79,0.01,,,0.12,,2013-01-01 20:02:00,
2013-01-01 15:13:00,36.0,30.0,29.83,NW,306,8.0,21.0,79,0.01,,,0.12,,2013-01-01 20:13:00,
2013-01-01 15:53:00,35.0,29.0,29.83,WNW,295,6.0,24.0,79,0.00,,,0.11,,2013-01-01 20:53:00,
2013-01-01 16:03:00,35.0,29.0,29.83,WNW,295,6.0,24.0,79,0.00,,,0.11,,2013-01-01 21:03:00,
2013-01-01 16:13:00,34.0,29.0,29.84,NNW,340,6.0,24.0,81,0.00,,,0.11,,2013-01-01 21:13:00,
2013-01-01 16:22:00,34.0,29.0,29.84,NNW,340,6.0,24.0,81,0.00,,,0.11,,2013-01-01 21:22:00,
2013-01-01 16:33:00,34.0,29.0,29.84,NNW,340,6.0,24.0,81,0.00,,,0.11,,2013-01-01 21:33:00,
2013-01-01 16:42:00,34.0,29.0,29.84,NNW,340,6.0,24.0,81,0.00,,,0.11,,2013-01-01 21:42:00,
2013-01-01 16:52:00,33.0,28.0,29.86,NNW,340,10.0,24.0,82,0.00,,,0.11,,2013-01-01 21:52:00,
2013-01-01 17:03:00,33.0,28.0,29.86,NNW,340,10.0,24.0,82,0.00,,,0.11,,2013-01-01 22:03:00,
2013-01-01 17:12:00,33.0,28.0,29.86,NNW,340,10.0,24.0,82,0.00,,,0.11,,2013-01-01 22:12:00,
2013-01-01 17:22:00,32.0,27.0,29.88,NW,312,4.0,24.0,81,0.00,,,0.11,,2013-01-01 22:22:00,
2013-01-01 17:33:00,32.0,27.0,29.88,NW,312,4.0,24.0,81,0.00,,,0.11,,2013-01-01 22:33:00,
2013-01-01 17:43:00,32.0,27.0,29.88,NW,312,4.0,24.0,81,0.00,,,0.11,,2013-01-01 22:43:00,
2013-01-01 18:22:00,30.0,24.0,29.90,NW,313,2.0,24.0,78,0.00,,,0.11,,2013-01-01 23:22:00,
2013-01-01 18:32:00,30.0,24.0,29.90,NW,313,2.0,24.0,78,0.00,,,0.11,,2013-01-01 23:32:00,
2013-01-01 18:42:00,30.0,24.0,29.90,NW,313,2.0,24.0,78,0.00,,,0.11,,2013-01-01 23:42:00,
2013-01-01 18:52:00,30.0,24.0,29.91,NNW,328,1.0,24.0,78,0.00,,,0.11,,2013-01-01 23:52:00,
2013-01-01 19:03:00,30.0,24.0,29.91,NNW,328,1.0,24.0,78,0.00,,,0.11,,2013-01-02 00:03:00,
2013-01-01 19:12:00,30.0,24.0,29.91,NNW,328,1.0,24.0,78,0.00,,,0.11,,2013-01-02 00:12:00,
2013-01-01 19:22:00,29.0,23.0,29.92,NW,321,0.0,24.0,78,0.00,,,0.11,,2013-01-02 00:22:00,
2013-01-01 19:32:00,29.0,23.0,29.92,NW,321,0.0,24.0,78,0.00,,,0.11,,2013-01-02 00:32:00,
2013-01-01 19:43:00,29.0,23.0,29.92,NW,321,0.0,24.0,78,0.00,,,0.11,,2013-01-02 00:43:00,
2013-01-01 19:52:00,29.0,23.0,29.93,NW,322,1.0,24.0,79,0.00,,,0.11,,2013-01-02 00:52:00,
2013-01-01 20:02:00,29.0,23.0,29.93,NW,322,1.0,24.0,79,0.00,,,0.11,,2013-01-02 01:02:00,
2013-01-01 20:12:00,29.0,23.0,29.93,NW,322,1.0,24.0,79,0.00,,,0.11,,2013-01-02 01:12:00,
2013-01-01 20:22:00,29.0,23.0,29.93,NNW,328,3.0,24.0,78,0.00,,,0.10,,2013-01-02 01:22:00,
2013-01-01 20:33:00,29.0,23.0,29.93,NNW,328,3.0,24.0,78,0.00,,,0.10,,2013-01-02 01:33:00,
2013-01-01 20:42:00,29.0,23.0,29.93,NNW,328,3.0,24.0,78,0.00,,,0.10,,2013-01-02 01:42:00,
2013-01-01 20:52:00,28.0,22.0,29.94,NW,310,1.0,24.0,77,0.00,,,0.10,,2013-01-02 01:52:00,
2013-01-01 21:02:00,28.0,22.0,29.94,NW,310,1.0,24.0,77,0.00,,,0.10,,2013-01-02 02:02:00,
2013-01-01 21:12:00,28.0,22.0,29.94,NW,310,1.0,24.0,77,0.00,,,0.10,,2013-01-02 02:12:00,
2013-01-01 21:53:00,27.0,20.0,29.95,NNW,342,4.0,24.0,76,0.00,,,0.10,,2013-01-02 02:53:00,
2013-01-01 22:02:00,27.0,20.0,29.95,NNW,342,4.0,24.0,76,0.00,,,0.10,,2013-01-02 03:02:00,
2013-01-01 22:12:00,27.0,20.0,29.95,NNW,342,4.0,24.0,76,0.00,,,0.10,,2013-01-02 03:12:00,
2013-01-01 22:22:00,26.0,17.0,29.96,NW,324,3.0,24.0,69,0.00,,,0.10,,2013-01-02 03:22:00,
2013-01-01 22:32:00,26.0,17.0,29.96,NW,324,3.0,24.0,69,0.00,,,0.10,,2013-01-02 03:32:00,
2013-01-01 22:42:00,26.0,17.0,29.96,NW,324,3.0,24.0,69,0.00,,,0.10,,2013-01-02 03:42:00,
2013-01-01 22:52:00,25.0,16.0,29.97,WSW,241,2.0,24.0,68,0.00,,,0.10,,2013-01-02 03:52:00,
2013-01-01 23:03:00,25.0,16.0,29.97,WSW,241,2.0,24.0,68,0.00,,,0.10,,2013-01-02 04:03:00,
2013-01-01 23:12:00,25.0,16.0,29.97,WSW,241,2.0,24.0,68,0.00,,,0.10,,2013-01-02 04:12:00,
2013-01-01 23:22:00,24.0,15.0,29.98,NW,326,7.0,24.0,69,0.00,,,0.10,,2013-01-02 04:22:00,
2013-01-01 23:32:00,24.0,15.0,29.98,NW,326,7.0,24.0,69,0.00,,,0.10,,2013-01-02 04:32:00,
2013-01-01 23:42:00,24.0,15.0,29.98,NW,326,7.0,24.0,69,0.00,,,0.10,,2013-01-02 04:42:00,
2013-01-01 23:52:00,23.0,15.0,29.99,NW,319,7.0,24.0,71,0.00,,,0.10,,2013-01-02 04:52:00,